Circle Line Xii — WM8392 — position and weather

sailwx.info

Track history (hours):
 
Tides and Currents Weather Stations Pressure Air Temp Water Temp Dewpoint Dewpoint Depression Visibility Wind Speed Wind Dir Waves Ship Positions

Circle Line Xii

Owner: CIRCLE LINE SIGHTSEEING YACHTS, NEW YORK, NY. More information available from US FCC via Universal Licensing System and Coast Guard Vessel Documentation Center.

Last reported at 2016-Aug-30 14:28 UTC. Time now 2016-Aug-30 14:59 UTC.
Position N 40°46' W 074°00'.

MMSI: 367032250.

Date/timePositionNaut miles runAvg speedWind from/ knotsBaromVisibWave heightAir tempDewpointWater temp
2016-Aug-30 14:28N 40°46' W 074°00'0 0.0
2016-Aug-30 13:31N 40°46' W 074°00'0 0.0
2016-Aug-30 00:33N 40°46' W 074°00'3 3.4
2016-Aug-29 23:34N 40°43' W 073°58'3 3.3
2016-Aug-29 22:33N 40°46' W 074°00'0 0.0
2016-Aug-29 21:33N 40°46' W 074°00'0 0.0
2016-Aug-29 20:33N 40°46' W 074°00'0 0.1
2016-Aug-29 19:33N 40°46' W 074°00'3 1.1
2016-Aug-29 17:20N 40°46' W 073°57'6 7.9
2016-Aug-29 16:34N 40°41' W 074°02'3 0.1
2016-Aug-28 00:33N 40°44' W 074°01'2 2.4
2016-Aug-27 23:33N 40°42' W 073°60'3 0.9
2016-Aug-27 20:24N 40°45' W 074°01'5 6.4
2016-Aug-27 19:33N 40°40' W 074°01'3 0.2
2016-Aug-27 00:33N 40°43' W 074°01'2 1.9
2016-Aug-26 23:34N 40°41' W 074°02'5 4.5
2016-Aug-26 22:31N 40°46' W 074°00'0 0.0
2016-Aug-26 21:31N 40°46' W 074°00'0 0.0
2016-Aug-26 20:31N 40°46' W 074°00'5 4.8
2016-Aug-26 19:33N 40°41' W 074°02'5 4.5
2016-Aug-26 18:32N 40°46' W 074°00'4 3.7
2016-Aug-26 17:33N 40°42' W 074°00'4 3.6
2016-Aug-26 16:33N 40°46' W 074°00'1 0.6
2016-Aug-26 15:34N 40°45' W 074°01'1 0.6
2016-Aug-26 14:31N 40°46' W 074°00'2 0.1
2016-Aug-26 00:34N 40°44' W 074°01'3 2.6
2016-Aug-25 23:34N 40°42' W 074°00'4 3.9
2016-Aug-25 22:33N 40°46' W 074°00'0 0.0
2016-Aug-25 21:33N 40°46' W 074°00'0 0.1
2016-Aug-25 20:33N 40°46' W 074°00'4 3.7
2016-Aug-25 19:33N 40°42' W 074°02'4 3.7
2016-Aug-25 18:33N 40°46' W 074°00'3 3.4
2016-Aug-25 17:33N 40°42' W 073°59'3 3.2
2016-Aug-25 16:30N 40°46' W 074°00'0 0.0
2016-Aug-25 15:34N 40°46' W 074°00'0 0.0
2016-Aug-24 22:13N 40°46' W 074°00'3 5.2
2016-Aug-24 21:33N 40°42' W 073°59'3 3.2
2016-Aug-24 20:28N 40°46' W 074°00'0 0.0
2016-Aug-24 19:31N 40°46' W 074°00'1 0.5
2016-Aug-24 18:33N 40°45' W 074°01'1 0.5
2016-Aug-24 17:30N 40°46' W 074°00'0 0.0
2016-Aug-24 16:33N 40°46' W 074°00'5 4.7
2016-Aug-24 15:33N 40°41' W 074°02'5 4.7
2016-Aug-24 14:33N 40°46' W 074°00'4 0.3
2016-Aug-24 00:34N 40°42' W 074°01'1 1.5
2016-Aug-23 23:34N 40°41' W 074°03'5 4.8
2016-Aug-23 22:33N 40°46' W 074°00'0 0.0
2016-Aug-23 21:33N 40°46' W 074°00'0 0.3
2016-Aug-23 20:33N 40°46' W 074°00'7 6.5
2016-Aug-23 19:33N 40°39' W 074°02'7 6.6
2016-Aug-23 18:33N 40°46' W 074°00'1 0.0
2016-Aug-22 22:04N 40°45' W 074°01'3 5.8
2016-Aug-22 21:33N 40°42' W 073°59'2 0.8
2016-Aug-22 18:33N 40°44' W 074°01'1 0.3
2016-Aug-22 16:29N 40°45' W 074°01'3 3.2
2016-Aug-22 15:34N 40°42' W 074°02'1 0.0
2016-Aug-21 00:33N 40°42' W 074°00'1 1.2
2016-Aug-20 23:33N 40°42' W 074°02'4 2.5
2016-Aug-20 22:07N 40°46' W 074°00'3 6.0
2016-Aug-20 21:34N 40°43' W 073°59'3 1.1
2016-Aug-20 18:31N 40°46' W 074°01'2 0.7
2016-Aug-20 16:21N 40°44' W 074°01'2 2.8
2016-Aug-20 15:33N 40°42' W 074°02'  
Track history (hours):
 
Tides and Currents Weather Stations Pressure Air Temp Water Temp Dewpoint Dewpoint Depression Visibility Wind Speed Wind Dir Waves Ship Positions

Circle Line Xii

Owner: CIRCLE LINE SIGHTSEEING YACHTS, NEW YORK, NY. More information available from US FCC via Universal Licensing System and Coast Guard Vessel Documentation Center.

Last reported at 2016-Aug-30 14:28 UTC. Time now 2016-Aug-30 14:59 UTC.
Position N 40°46' W 074°00'.

MMSI: 367032250.

Date/timePositionNaut miles runAvg speedWind from/ knotsBaromVisibWave heightAir tempDewpointWater temp
2016-Aug-30 14:28N 40°46' W 074°00'0 0.0
2016-Aug-30 13:31N 40°46' W 074°00'0 0.0
2016-Aug-30 00:33N 40°46' W 074°00'3 3.4
2016-Aug-29 23:34N 40°43' W 073°58'3 3.3
2016-Aug-29 22:33N 40°46' W 074°00'0 0.0
2016-Aug-29 21:33N 40°46' W 074°00'0 0.0
2016-Aug-29 20:33N 40°46' W 074°00'0 0.1
2016-Aug-29 19:33N 40°46' W 074°00'3 1.1
2016-Aug-29 17:20N 40°46' W 073°57'6 7.9
2016-Aug-29 16:34N 40°41' W 074°02'3 0.1
2016-Aug-28 00:33N 40°44' W 074°01'2 2.4
2016-Aug-27 23:33N 40°42' W 073°60'3 0.9
2016-Aug-27 20:24N 40°45' W 074°01'5 6.4
2016-Aug-27 19:33N 40°40' W 074°01'3 0.2
2016-Aug-27 00:33N 40°43' W 074°01'2 1.9
2016-Aug-26 23:34N 40°41' W 074°02'5 4.5
2016-Aug-26 22:31N 40°46' W 074°00'0 0.0
2016-Aug-26 21:31N 40°46' W 074°00'0 0.0
2016-Aug-26 20:31N 40°46' W 074°00'5 4.8
2016-Aug-26 19:33N 40°41' W 074°02'5 4.5
2016-Aug-26 18:32N 40°46' W 074°00'4 3.7
2016-Aug-26 17:33N 40°42' W 074°00'4 3.6
2016-Aug-26 16:33N 40°46' W 074°00'1 0.6
2016-Aug-26 15:34N 40°45' W 074°01'1 0.6
2016-Aug-26 14:31N 40°46' W 074°00'2 0.1
2016-Aug-26 00:34N 40°44' W 074°01'3 2.6
2016-Aug-25 23:34N 40°42' W 074°00'4 3.9
2016-Aug-25 22:33N 40°46' W 074°00'0 0.0
2016-Aug-25 21:33N 40°46' W 074°00'0 0.1
2016-Aug-25 20:33N 40°46' W 074°00'4 3.7
2016-Aug-25 19:33N 40°42' W 074°02'4 3.7
2016-Aug-25 18:33N 40°46' W 074°00'3 3.4
2016-Aug-25 17:33N 40°42' W 073°59'3 3.2
2016-Aug-25 16:30N 40°46' W 074°00'0 0.0
2016-Aug-25 15:34N 40°46' W 074°00'0 0.0
2016-Aug-24 22:13N 40°46' W 074°00'3 5.2
2016-Aug-24 21:33N 40°42' W 073°59'3 3.2
2016-Aug-24 20:28N 40°46' W 074°00'0 0.0
2016-Aug-24 19:31N 40°46' W 074°00'1 0.5
2016-Aug-24 18:33N 40°45' W 074°01'1 0.5
2016-Aug-24 17:30N 40°46' W 074°00'0 0.0
2016-Aug-24 16:33N 40°46' W 074°00'5 4.7
2016-Aug-24 15:33N 40°41' W 074°02'5 4.7
2016-Aug-24 14:33N 40°46' W 074°00'4 0.3
2016-Aug-24 00:34N 40°42' W 074°01'1 1.5
2016-Aug-23 23:34N 40°41' W 074°03'5 4.8
2016-Aug-23 22:33N 40°46' W 074°00'0 0.0
2016-Aug-23 21:33N 40°46' W 074°00'0 0.3
2016-Aug-23 20:33N 40°46' W 074°00'7 6.5
2016-Aug-23 19:33N 40°39' W 074°02'7 6.6
2016-Aug-23 18:33N 40°46' W 074°00'1 0.0
2016-Aug-22 22:04N 40°45' W 074°01'3 5.8
2016-Aug-22 21:33N 40°42' W 073°59'2 0.8
2016-Aug-22 18:33N 40°44' W 074°01'1 0.3
2016-Aug-22 16:29N 40°45' W 074°01'3 3.2
2016-Aug-22 15:34N 40°42' W 074°02'1 0.0
2016-Aug-21 00:33N 40°42' W 074°00'1 1.2
2016-Aug-20 23:33N 40°42' W 074°02'4 2.5
2016-Aug-20 22:07N 40°46' W 074°00'3 6.0
2016-Aug-20 21:34N 40°43' W 073°59'3 1.1
2016-Aug-20 18:31N 40°46' W 074°01'2 0.7
2016-Aug-20 16:21N 40°44' W 074°01'2 2.8
2016-Aug-20 15:33N 40°42' W 074°02'  

Dump ship's entire track history